sensor_id;sensor_type;location;lat;lon;timestamp;P1;durP1;ratioP1;P2;durP2;ratioP2
64667;SDS011;51077;42.716;23.344;2023-11-19T00:01:00;3.10;;;1.20;;
64667;SDS011;51077;42.716;23.344;2023-11-19T00:03:26;3.30;;;1.43;;
64667;SDS011;51077;42.716;23.344;2023-11-19T00:05:51;2.97;;;1.40;;
64667;SDS011;51077;42.716;23.344;2023-11-19T00:08:17;2.60;;;1.47;;
64667;SDS011;51077;42.716;23.344;2023-11-19T00:10:42;2.57;;;1.53;;
64667;SDS011;51077;42.716;23.344;2023-11-19T00:13:08;2.20;;;1.20;;
64667;SDS011;51077;42.716;23.344;2023-11-19T00:15:35;2.72;;;1.33;;
64667;SDS011;51077;42.716;23.344;2023-11-19T00:18:00;3.30;;;1.30;;
64667;SDS011;51077;42.716;23.344;2023-11-19T00:20:29;2.33;;;1.30;;
64667;SDS011;51077;42.716;23.344;2023-11-19T00:22:55;3.07;;;1.20;;
64667;SDS011;51077;42.716;23.344;2023-11-19T00:25:21;2.30;;;1.30;;
64667;SDS011;51077;42.716;23.344;2023-11-19T00:27:46;2.30;;;1.33;;
64667;SDS011;51077;42.716;23.344;2023-11-19T00:30:12;3.05;;;1.20;;
64667;SDS011;51077;42.716;23.344;2023-11-19T00:32:39;2.15;;;1.30;;
64667;SDS011;51077;42.716;23.344;2023-11-19T00:35:06;2.72;;;1.38;;
64667;SDS011;51077;42.716;23.344;2023-11-19T00:37:32;2.50;;;1.27;;
64667;SDS011;51077;42.716;23.344;2023-11-19T00:39:58;3.13;;;1.40;;
64667;SDS011;51077;42.716;23.344;2023-11-19T00:42:24;3.23;;;1.50;;
64667;SDS011;51077;42.716;23.344;2023-11-19T00:44:50;2.47;;;1.27;;
64667;SDS011;51077;42.716;23.344;2023-11-19T00:47:16;2.75;;;1.60;;
64667;SDS011;51077;42.716;23.344;2023-11-19T00:49:42;2.50;;;1.30;;
64667;SDS011;51077;42.716;23.344;2023-11-19T00:52:08;2.20;;;1.27;;
64667;SDS011;51077;42.716;23.344;2023-11-19T00:54:33;2.23;;;1.30;;
64667;SDS011;51077;42.716;23.344;2023-11-19T00:56:58;2.80;;;1.60;;
64667;SDS011;51077;42.716;23.344;2023-11-19T00:59:24;2.83;;;1.27;;
64667;SDS011;51077;42.716;23.344;2023-11-19T01:01:50;2.90;;;1.53;;
64667;SDS011;51077;42.716;23.344;2023-11-19T01:04:18;3.13;;;1.50;;
64667;SDS011;51077;42.716;23.344;2023-11-19T01:06:43;3.23;;;1.60;;
64667;SDS011;51077;42.716;23.344;2023-11-19T01:09:09;3.13;;;1.60;;
64667;SDS011;51077;42.716;23.344;2023-11-19T01:11:35;2.40;;;1.27;;
64667;SDS011;51077;42.716;23.344;2023-11-19T01:14:00;3.00;;;1.60;;
64667;SDS011;51077;42.716;23.344;2023-11-19T01:16:26;2.87;;;1.40;;
64667;SDS011;51077;42.716;23.344;2023-11-19T01:18:52;2.67;;;1.40;;
64667;SDS011;51077;42.716;23.344;2023-11-19T01:21:17;2.90;;;1.60;;
64667;SDS011;51077;42.716;23.344;2023-11-19T01:23:44;2.50;;;1.50;;
64667;SDS011;51077;42.716;23.344;2023-11-19T01:26:10;2.97;;;1.40;;
64667;SDS011;51077;42.716;23.344;2023-11-19T01:28:37;2.72;;;1.58;;
64667;SDS011;51077;42.716;23.344;2023-11-19T01:31:04;2.08;;;1.10;;
64667;SDS011;51077;42.716;23.344;2023-11-19T01:33:30;2.28;;;1.30;;
64667;SDS011;51077;42.716;23.344;2023-11-19T01:35:56;2.57;;;1.30;;
64667;SDS011;51077;42.716;23.344;2023-11-19T01:38:23;3.47;;;1.40;;
64667;SDS011;51077;42.716;23.344;2023-11-19T01:40:49;3.22;;;1.50;;
64667;SDS011;51077;42.716;23.344;2023-11-19T01:43:34;2.17;;;1.27;;
64667;SDS011;51077;42.716;23.344;2023-11-19T01:46:00;2.15;;;1.20;;
64667;SDS011;51077;42.716;23.344;2023-11-19T01:48:28;2.08;;;1.15;;
64667;SDS011;51077;42.716;23.344;2023-11-19T01:50:55;2.75;;;1.60;;
64667;SDS011;51077;42.716;23.344;2023-11-19T01:53:22;3.47;;;1.30;;
64667;SDS011;51077;42.716;23.344;2023-11-19T01:55:48;2.92;;;1.80;;
64667;SDS011;51077;42.716;23.344;2023-11-19T01:58:14;2.33;;;1.20;;
64667;SDS011;51077;42.716;23.344;2023-11-19T02:00:40;2.60;;;1.50;;
64667;SDS011;51077;42.716;23.344;2023-11-19T02:03:06;2.47;;;1.20;;
64667;SDS011;51077;42.716;23.344;2023-11-19T02:05:33;2.20;;;1.40;;
64667;SDS011;51077;42.716;23.344;2023-11-19T02:07:59;2.63;;;1.25;;
64667;SDS011;51077;42.716;23.344;2023-11-19T02:10:25;1.98;;;1.17;;
64667;SDS011;51077;42.716;23.344;2023-11-19T02:12:51;2.17;;;1.30;;
64667;SDS011;51077;42.716;23.344;2023-11-19T02:15:17;2.67;;;1.30;;
64667;SDS011;51077;42.716;23.344;2023-11-19T02:17:44;2.40;;;1.40;;
64667;SDS011;51077;42.716;23.344;2023-11-19T02:20:09;2.20;;;1.10;;
64667;SDS011;51077;42.716;23.344;2023-11-19T02:22:39;2.95;;;1.50;;
64667;SDS011;51077;42.716;23.344;2023-11-19T02:25:07;2.53;;;1.50;;
64667;SDS011;51077;42.716;23.344;2023-11-19T02:27:50;2.60;;;1.20;;
64667;SDS011;51077;42.716;23.344;2023-11-19T02:30:20;2.88;;;1.38;;
64667;SDS011;51077;42.716;23.344;2023-11-19T02:32:51;2.83;;;1.60;;
64667;SDS011;51077;42.716;23.344;2023-11-19T02:35:22;2.63;;;1.38;;
64667;SDS011;51077;42.716;23.344;2023-11-19T02:37:51;2.42;;;1.38;;
64667;SDS011;51077;42.716;23.344;2023-11-19T02:40:16;2.57;;;1.30;;
64667;SDS011;51077;42.716;23.344;2023-11-19T02:42:42;2.63;;;1.30;;
64667;SDS011;51077;42.716;23.344;2023-11-19T02:45:08;2.77;;;1.40;;
64667;SDS011;51077;42.716;23.344;2023-11-19T02:47:39;2.60;;;1.48;;
64667;SDS011;51077;42.716;23.344;2023-11-19T02:50:06;2.25;;;1.20;;
64667;SDS011;51077;42.716;23.344;2023-11-19T02:52:38;2.28;;;1.35;;
64667;SDS011;51077;42.716;23.344;2023-11-19T02:55:04;2.33;;;1.23;;
64667;SDS011;51077;42.716;23.344;2023-11-19T02:57:34;2.75;;;1.50;;
64667;SDS011;51077;42.716;23.344;2023-11-19T03:00:00;3.03;;;1.43;;
64667;SDS011;51077;42.716;23.344;2023-11-19T03:02:25;2.20;;;1.23;;
64667;SDS011;51077;42.716;23.344;2023-11-19T03:04:58;3.63;;;1.40;;
64667;SDS011;51077;42.716;23.344;2023-11-19T03:07:25;3.72;;;1.35;;
64667;SDS011;51077;42.716;23.344;2023-11-19T03:09:50;2.50;;;1.20;;
64667;SDS011;51077;42.716;23.344;2023-11-19T03:12:15;3.93;;;1.80;;
64667;SDS011;51077;42.716;23.344;2023-11-19T03:14:41;3.60;;;1.40;;
64667;SDS011;51077;42.716;23.344;2023-11-19T03:17:07;2.85;;;1.55;;
64667;SDS011;51077;42.716;23.344;2023-11-19T03:19:34;2.30;;;1.23;;
64667;SDS011;51077;42.716;23.344;2023-11-19T03:22:01;2.27;;;1.13;;
64667;SDS011;51077;42.716;23.344;2023-11-19T03:24:27;2.03;;;1.30;;
64667;SDS011;51077;42.716;23.344;2023-11-19T03:26:52;2.53;;;1.60;;
64667;SDS011;51077;42.716;23.344;2023-11-19T03:29:18;3.33;;;1.47;;
64667;SDS011;51077;42.716;23.344;2023-11-19T03:31:44;3.63;;;1.63;;
64667;SDS011;51077;42.716;23.344;2023-11-19T03:34:12;2.70;;;1.50;;
64667;SDS011;51077;42.716;23.344;2023-11-19T03:36:38;2.30;;;1.20;;
64667;SDS011;51077;42.716;23.344;2023-11-19T03:39:03;2.57;;;1.40;;
64667;SDS011;51077;42.716;23.344;2023-11-19T03:41:29;2.83;;;1.27;;
64667;SDS011;51077;42.716;23.344;2023-11-19T03:43:54;2.73;;;1.50;;
64667;SDS011;51077;42.716;23.344;2023-11-19T03:46:20;3.55;;;1.40;;
64667;SDS011;51077;42.716;23.344;2023-11-19T03:48:47;3.25;;;1.30;;
64667;SDS011;51077;42.716;23.344;2023-11-19T03:51:13;2.60;;;1.20;;
64667;SDS011;51077;42.716;23.344;2023-11-19T03:53:43;2.00;;;1.20;;
64667;SDS011;51077;42.716;23.344;2023-11-19T03:56:09;2.65;;;1.40;;
64667;SDS011;51077;42.716;23.344;2023-11-19T03:58:36;2.42;;;1.40;;
64667;SDS011;51077;42.716;23.344;2023-11-19T04:01:03;2.45;;;1.25;;
64667;SDS011;51077;42.716;23.344;2023-11-19T04:03:29;1.92;;;1.17;;
64667;SDS011;51077;42.716;23.344;2023-11-19T04:05:55;2.87;;;1.33;;
64667;SDS011;51077;42.716;23.344;2023-11-19T04:08:21;2.33;;;1.13;;
64667;SDS011;51077;42.716;23.344;2023-11-19T04:10:47;3.10;;;1.60;;
64667;SDS011;51077;42.716;23.344;2023-11-19T04:13:13;2.97;;;1.40;;
64667;SDS011;51077;42.716;23.344;2023-11-19T04:15:38;2.23;;;1.47;;
64667;SDS011;51077;42.716;23.344;2023-11-19T04:18:04;3.03;;;1.53;;
64667;SDS011;51077;42.716;23.344;2023-11-19T04:20:29;2.67;;;1.40;;
64667;SDS011;51077;42.716;23.344;2023-11-19T04:22:56;2.58;;;1.60;;
64667;SDS011;51077;42.716;23.344;2023-11-19T04:25:22;2.97;;;1.60;;
64667;SDS011;51077;42.716;23.344;2023-11-19T04:27:51;3.63;;;1.55;;
64667;SDS011;51077;42.716;23.344;2023-11-19T04:30:17;3.50;;;1.80;;
64667;SDS011;51077;42.716;23.344;2023-11-19T04:32:43;3.47;;;1.40;;
64667;SDS011;51077;42.716;23.344;2023-11-19T04:35:10;3.40;;;1.60;;
64667;SDS011;51077;42.716;23.344;2023-11-19T04:37:36;4.13;;;1.40;;
64667;SDS011;51077;42.716;23.344;2023-11-19T04:40:02;4.03;;;1.92;;
64667;SDS011;51077;42.716;23.344;2023-11-19T04:42:28;2.78;;;1.65;;
64667;SDS011;51077;42.716;23.344;2023-11-19T04:44:54;3.00;;;1.63;;
64667;SDS011;51077;42.716;23.344;2023-11-19T04:47:20;3.13;;;1.52;;
64667;SDS011;51077;42.716;23.344;2023-11-19T04:49:46;2.50;;;1.63;;
64667;SDS011;51077;42.716;23.344;2023-11-19T04:52:11;3.40;;;1.60;;
64667;SDS011;51077;42.716;23.344;2023-11-19T04:54:41;4.07;;;1.93;;
64667;SDS011;51077;42.716;23.344;2023-11-19T04:57:07;4.20;;;1.77;;
64667;SDS011;51077;42.716;23.344;2023-11-19T04:59:36;2.97;;;1.55;;
64667;SDS011;51077;42.716;23.344;2023-11-19T05:02:02;2.97;;;1.75;;
64667;SDS011;51077;42.716;23.344;2023-11-19T05:04:29;3.10;;;1.73;;
64667;SDS011;51077;42.716;23.344;2023-11-19T05:06:54;3.20;;;1.80;;
64667;SDS011;51077;42.716;23.344;2023-11-19T05:09:20;3.30;;;1.63;;
64667;SDS011;51077;42.716;23.344;2023-11-19T05:11:45;3.23;;;1.87;;
64667;SDS011;51077;42.716;23.344;2023-11-19T05:14:11;4.70;;;1.70;;
64667;SDS011;51077;42.716;23.344;2023-11-19T05:16:39;2.27;;;1.30;;
64667;SDS011;51077;42.716;23.344;2023-11-19T05:19:05;3.22;;;1.92;;
64667;SDS011;51077;42.716;23.344;2023-11-19T05:21:30;4.10;;;1.60;;
64667;SDS011;51077;42.716;23.344;2023-11-19T05:23:56;3.17;;;1.73;;
64667;SDS011;51077;42.716;23.344;2023-11-19T05:26:22;3.47;;;1.87;;
64667;SDS011;51077;42.716;23.344;2023-11-19T05:28:49;2.78;;;1.65;;
64667;SDS011;51077;42.716;23.344;2023-11-19T05:31:15;3.08;;;1.50;;
64667;SDS011;51077;42.716;23.344;2023-11-19T05:33:42;2.83;;;1.60;;
64667;SDS011;51077;42.716;23.344;2023-11-19T05:39:29;2.60;;;1.50;;
64667;SDS011;51077;42.716;23.344;2023-11-19T05:41:54;3.53;;;1.70;;
64667;SDS011;51077;42.716;23.344;2023-11-19T05:44:20;2.77;;;1.30;;
64667;SDS011;51077;42.716;23.344;2023-11-19T05:46:45;2.80;;;1.50;;
64667;SDS011;51077;42.716;23.344;2023-11-19T05:49:11;3.00;;;1.50;;
64667;SDS011;51077;42.716;23.344;2023-11-19T05:51:37;5.32;;;1.73;;
64667;SDS011;51077;42.716;23.344;2023-11-19T05:54:04;3.05;;;1.75;;
64667;SDS011;51077;42.716;23.344;2023-11-19T05:56:32;3.38;;;1.90;;
64667;SDS011;51077;42.716;23.344;2023-11-19T05:58:58;3.42;;;1.65;;
64667;SDS011;51077;42.716;23.344;2023-11-19T06:01:26;3.33;;;1.63;;
64667;SDS011;51077;42.716;23.344;2023-11-19T06:03:51;3.07;;;1.70;;
64667;SDS011;51077;42.716;23.344;2023-11-19T06:06:18;3.20;;;1.67;;
64667;SDS011;51077;42.716;23.344;2023-11-19T06:08:43;5.05;;;1.83;;
64667;SDS011;51077;42.716;23.344;2023-11-19T06:11:10;2.83;;;1.80;;
64667;SDS011;51077;42.716;23.344;2023-11-19T06:13:43;3.03;;;1.85;;
64667;SDS011;51077;42.716;23.344;2023-11-19T06:16:09;3.60;;;1.88;;
64667;SDS011;51077;42.716;23.344;2023-11-19T06:18:36;3.87;;;1.90;;
64667;SDS011;51077;42.716;23.344;2023-11-19T06:21:01;3.10;;;1.90;;
64667;SDS011;51077;42.716;23.344;2023-11-19T06:23:27;3.13;;;1.70;;
64667;SDS011;51077;42.716;23.344;2023-11-19T06:25:52;3.13;;;1.70;;
64667;SDS011;51077;42.716;23.344;2023-11-19T06:28:18;3.23;;;1.83;;
64667;SDS011;51077;42.716;23.344;2023-11-19T06:30:43;3.40;;;1.80;;
64667;SDS011;51077;42.716;23.344;2023-11-19T06:33:09;2.67;;;1.73;;
64667;SDS011;51077;42.716;23.344;2023-11-19T06:35:37;3.67;;;1.67;;
64667;SDS011;51077;42.716;23.344;2023-11-19T06:38:02;2.90;;;1.80;;
64667;SDS011;51077;42.716;23.344;2023-11-19T06:40:29;3.10;;;1.65;;
64667;SDS011;51077;42.716;23.344;2023-11-19T06:43:00;3.10;;;1.70;;
64667;SDS011;51077;42.716;23.344;2023-11-19T06:45:25;3.37;;;1.73;;
64667;SDS011;51077;42.716;23.344;2023-11-19T06:47:51;3.23;;;2.03;;
64667;SDS011;51077;42.716;23.344;2023-11-19T06:50:16;4.30;;;2.00;;
64667;SDS011;51077;42.716;23.344;2023-11-19T06:52:44;3.88;;;2.10;;
64667;SDS011;51077;42.716;23.344;2023-11-19T06:55:10;3.47;;;2.10;;
64667;SDS011;51077;42.716;23.344;2023-11-19T06:57:36;3.22;;;1.83;;
64667;SDS011;51077;42.716;23.344;2023-11-19T07:00:02;4.23;;;2.30;;
64667;SDS011;51077;42.716;23.344;2023-11-19T07:02:28;3.60;;;2.42;;
64667;SDS011;51077;42.716;23.344;2023-11-19T07:04:53;2.97;;;2.00;;
64667;SDS011;51077;42.716;23.344;2023-11-19T07:07:19;3.25;;;1.70;;
64667;SDS011;51077;42.716;23.344;2023-11-19T07:09:45;3.23;;;1.73;;
64667;SDS011;51077;42.716;23.344;2023-11-19T07:12:10;3.07;;;1.90;;
64667;SDS011;51077;42.716;23.344;2023-11-19T07:14:39;4.40;;;2.03;;
64667;SDS011;51077;42.716;23.344;2023-11-19T07:17:05;4.90;;;2.30;;
64667;SDS011;51077;42.716;23.344;2023-11-19T07:19:31;4.15;;;1.90;;
64667;SDS011;51077;42.716;23.344;2023-11-19T07:21:56;4.13;;;2.30;;
64667;SDS011;51077;42.716;23.344;2023-11-19T07:24:22;3.40;;;1.90;;
64667;SDS011;51077;42.716;23.344;2023-11-19T07:26:47;2.83;;;1.80;;
64667;SDS011;51077;42.716;23.344;2023-11-19T07:29:14;3.47;;;2.17;;
64667;SDS011;51077;42.716;23.344;2023-11-19T07:31:41;4.57;;;2.05;;
64667;SDS011;51077;42.716;23.344;2023-11-19T07:34:10;3.72;;;2.47;;
64667;SDS011;51077;42.716;23.344;2023-11-19T07:36:36;3.40;;;2.08;;
64667;SDS011;51077;42.716;23.344;2023-11-19T07:39:03;3.88;;;2.03;;
64667;SDS011;51077;42.716;23.344;2023-11-19T07:41:29;3.33;;;2.00;;
64667;SDS011;51077;42.716;23.344;2023-11-19T07:43:55;3.97;;;1.98;;
64667;SDS011;51077;42.716;23.344;2023-11-19T07:46:21;3.43;;;2.03;;
64667;SDS011;51077;42.716;23.344;2023-11-19T07:48:47;7.10;;;4.80;;
64667;SDS011;51077;42.716;23.344;2023-11-19T07:51:12;6.37;;;4.37;;
64667;SDS011;51077;42.716;23.344;2023-11-19T07:53:38;5.55;;;3.92;;
64667;SDS011;51077;42.716;23.344;2023-11-19T07:56:05;6.28;;;3.90;;
64667;SDS011;51077;42.716;23.344;2023-11-19T07:58:31;4.90;;;3.60;;
64667;SDS011;51077;42.716;23.344;2023-11-19T08:00:57;5.07;;;4.00;;
64667;SDS011;51077;42.716;23.344;2023-11-19T08:03:22;5.63;;;3.93;;
64667;SDS011;51077;42.716;23.344;2023-11-19T08:05:48;4.00;;;2.95;;
64667;SDS011;51077;42.716;23.344;2023-11-19T08:08:14;3.95;;;2.80;;
64667;SDS011;51077;42.716;23.344;2023-11-19T08:10:40;4.00;;;2.60;;
64667;SDS011;51077;42.716;23.344;2023-11-19T08:13:06;4.63;;;2.88;;
64667;SDS011;51077;42.716;23.344;2023-11-19T08:15:32;4.07;;;2.50;;
64667;SDS011;51077;42.716;23.344;2023-11-19T08:17:57;4.80;;;2.67;;
64667;SDS011;51077;42.716;23.344;2023-11-19T08:20:23;3.77;;;2.40;;
64667;SDS011;51077;42.716;23.344;2023-11-19T08:22:48;3.43;;;2.50;;
64667;SDS011;51077;42.716;23.344;2023-11-19T08:25:14;4.40;;;2.53;;
64667;SDS011;51077;42.716;23.344;2023-11-19T08:27:40;3.17;;;2.20;;
64667;SDS011;51077;42.716;23.344;2023-11-19T08:30:05;3.27;;;2.13;;
64667;SDS011;51077;42.716;23.344;2023-11-19T08:32:32;4.00;;;2.10;;
64667;SDS011;51077;42.716;23.344;2023-11-19T08:34:58;3.53;;;2.08;;
64667;SDS011;51077;42.716;23.344;2023-11-19T08:37:23;3.97;;;2.50;;
64667;SDS011;51077;42.716;23.344;2023-11-19T08:39:49;2.93;;;2.20;;
64667;SDS011;51077;42.716;23.344;2023-11-19T08:42:16;3.72;;;2.45;;
64667;SDS011;51077;42.716;23.344;2023-11-19T08:44:42;3.60;;;2.40;;
64667;SDS011;51077;42.716;23.344;2023-11-19T08:47:12;3.65;;;2.33;;
64667;SDS011;51077;42.716;23.344;2023-11-19T08:49:38;3.83;;;2.33;;
64667;SDS011;51077;42.716;23.344;2023-11-19T08:52:04;3.33;;;2.10;;
64667;SDS011;51077;42.716;23.344;2023-11-19T08:54:32;4.63;;;2.83;;
64667;SDS011;51077;42.716;23.344;2023-11-19T08:56:58;3.97;;;2.50;;
64667;SDS011;51077;42.716;23.344;2023-11-19T08:59:24;5.68;;;2.38;;
64667;SDS011;51077;42.716;23.344;2023-11-19T09:01:50;3.53;;;2.50;;
64667;SDS011;51077;42.716;23.344;2023-11-19T09:04:15;4.87;;;2.73;;
64667;SDS011;51077;42.716;23.344;2023-11-19T09:06:41;11.43;;;7.90;;
64667;SDS011;51077;42.716;23.344;2023-11-19T09:09:07;16.15;;;11.07;;
64667;SDS011;51077;42.716;23.344;2023-11-19T09:11:33;22.17;;;14.70;;
64667;SDS011;51077;42.716;23.344;2023-11-19T09:13:59;33.83;;;20.90;;
64667;SDS011;51077;42.716;23.344;2023-11-19T09:16:24;28.93;;;19.80;;
64667;SDS011;51077;42.716;23.344;2023-11-19T09:18:50;29.75;;;21.05;;
64667;SDS011;51077;42.716;23.344;2023-11-19T09:21:16;25.30;;;18.13;;
64667;SDS011;51077;42.716;23.344;2023-11-19T09:23:41;25.13;;;16.23;;
64667;SDS011;51077;42.716;23.344;2023-11-19T09:26:08;20.40;;;14.47;;
64667;SDS011;51077;42.716;23.344;2023-11-19T09:28:37;18.60;;;13.23;;
64667;SDS011;51077;42.716;23.344;2023-11-19T09:31:02;16.77;;;11.90;;
64667;SDS011;51077;42.716;23.344;2023-11-19T09:33:31;15.68;;;11.52;;
64667;SDS011;51077;42.716;23.344;2023-11-19T09:35:56;13.20;;;9.97;;
64667;SDS011;51077;42.716;23.344;2023-11-19T09:38:22;13.27;;;10.25;;
64667;SDS011;51077;42.716;23.344;2023-11-19T09:40:48;11.80;;;9.17;;
64667;SDS011;51077;42.716;23.344;2023-11-19T09:43:14;11.13;;;8.10;;
64667;SDS011;51077;42.716;23.344;2023-11-19T09:45:50;10.68;;;7.88;;
64667;SDS011;51077;42.716;23.344;2023-11-19T09:48:16;10.52;;;7.35;;
64667;SDS011;51077;42.716;23.344;2023-11-19T09:50:44;9.77;;;7.20;;
64667;SDS011;51077;42.716;23.344;2023-11-19T09:53:11;9.27;;;6.85;;
64667;SDS011;51077;42.716;23.344;2023-11-19T09:55:37;8.27;;;6.20;;
64667;SDS011;51077;42.716;23.344;2023-11-19T09:58:03;9.37;;;6.43;;
64667;SDS011;51077;42.716;23.344;2023-11-19T10:00:29;9.00;;;5.50;;
64667;SDS011;51077;42.716;23.344;2023-11-19T10:02:55;7.53;;;5.50;;
64667;SDS011;51077;42.716;23.344;2023-11-19T10:05:22;6.05;;;4.68;;
64667;SDS011;51077;42.716;23.344;2023-11-19T10:07:49;7.22;;;4.93;;
64667;SDS011;51077;42.716;23.344;2023-11-19T10:10:15;6.13;;;4.38;;
64667;SDS011;51077;42.716;23.344;2023-11-19T10:12:44;6.55;;;3.90;;
64667;SDS011;51077;42.716;23.344;2023-11-19T10:15:20;5.05;;;3.90;;
64667;SDS011;51077;42.716;23.344;2023-11-19T10:17:50;5.15;;;3.50;;
64667;SDS011;51077;42.716;23.344;2023-11-19T10:20:16;4.50;;;3.10;;
64667;SDS011;51077;42.716;23.344;2023-11-19T10:22:41;5.13;;;3.40;;
64667;SDS011;51077;42.716;23.344;2023-11-19T10:25:21;4.90;;;3.10;;
64667;SDS011;51077;42.716;23.344;2023-11-19T10:27:51;3.67;;;2.40;;
64667;SDS011;51077;42.716;23.344;2023-11-19T10:30:17;4.82;;;2.40;;
64667;SDS011;51077;42.716;23.344;2023-11-19T10:33:07;3.42;;;2.13;;
64667;SDS011;51077;42.716;23.344;2023-11-19T10:35:34;3.67;;;2.30;;
64667;SDS011;51077;42.716;23.344;2023-11-19T10:38:01;4.88;;;2.45;;
64667;SDS011;51077;42.716;23.344;2023-11-19T10:40:39;3.45;;;2.30;;
64667;SDS011;51077;42.716;23.344;2023-11-19T10:43:05;3.30;;;2.15;;
64667;SDS011;51077;42.716;23.344;2023-11-19T10:45:32;2.97;;;1.70;;
64667;SDS011;51077;42.716;23.344;2023-11-19T10:47:58;3.00;;;1.98;;
64667;SDS011;51077;42.716;23.344;2023-11-19T10:50:25;4.60;;;2.78;;
64667;SDS011;51077;42.716;23.344;2023-11-19T10:52:56;3.92;;;2.33;;
64667;SDS011;51077;42.716;23.344;2023-11-19T10:55:28;3.50;;;2.15;;
64667;SDS011;51077;42.716;23.344;2023-11-19T10:57:59;4.07;;;2.20;;
64667;SDS011;51077;42.716;23.344;2023-11-19T11:00:48;5.05;;;2.35;;
64667;SDS011;51077;42.716;23.344;2023-11-19T11:03:21;3.05;;;1.90;;
64667;SDS011;51077;42.716;23.344;2023-11-19T11:05:52;5.63;;;2.08;;
64667;SDS011;51077;42.716;23.344;2023-11-19T11:08:19;3.38;;;2.05;;
64667;SDS011;51077;42.716;23.344;2023-11-19T11:10:48;4.15;;;2.45;;
64667;SDS011;51077;42.716;23.344;2023-11-19T11:13:18;4.32;;;2.38;;
64667;SDS011;51077;42.716;23.344;2023-11-19T11:15:45;3.05;;;1.70;;
64667;SDS011;51077;42.716;23.344;2023-11-19T11:18:12;2.92;;;1.83;;
64667;SDS011;51077;42.716;23.344;2023-11-19T11:20:38;3.05;;;1.67;;
64667;SDS011;51077;42.716;23.344;2023-11-19T11:28:30;2.92;;;1.88;;
64667;SDS011;51077;42.716;23.344;2023-11-19T11:33:52;4.43;;;1.77;;
64667;SDS011;51077;42.716;23.344;2023-11-19T11:36:46;3.47;;;2.00;;
64667;SDS011;51077;42.716;23.344;2023-11-19T11:39:17;3.85;;;1.92;;
64667;SDS011;51077;42.716;23.344;2023-11-19T11:41:46;4.07;;;2.28;;
64667;SDS011;51077;42.716;23.344;2023-11-19T11:44:12;3.07;;;2.07;;
64667;SDS011;51077;42.716;23.344;2023-11-19T11:49:03;3.90;;;2.27;;
64667;SDS011;51077;42.716;23.344;2023-11-19T11:59:42;4.72;;;2.50;;
64667;SDS011;51077;42.716;23.344;2023-11-19T12:02:13;5.05;;;2.38;;
64667;SDS011;51077;42.716;23.344;2023-11-19T12:04:41;4.32;;;2.28;;
64667;SDS011;51077;42.716;23.344;2023-11-19T12:07:40;3.05;;;1.95;;
64667;SDS011;51077;42.716;23.344;2023-11-19T12:10:06;6.32;;;3.88;;
64667;SDS011;51077;42.716;23.344;2023-11-19T12:12:33;7.18;;;3.78;;
64667;SDS011;51077;42.716;23.344;2023-11-19T12:17:41;5.97;;;4.05;;
64667;SDS011;51077;42.716;23.344;2023-11-19T12:20:10;6.55;;;4.93;;
64667;SDS011;51077;42.716;23.344;2023-11-19T12:22:39;6.43;;;5.32;;
64667;SDS011;51077;42.716;23.344;2023-11-19T12:25:07;7.90;;;5.97;;
64667;SDS011;51077;42.716;23.344;2023-11-19T12:27:39;8.15;;;6.38;;
64667;SDS011;51077;42.716;23.344;2023-11-19T12:30:10;7.28;;;5.75;;
64667;SDS011;51077;42.716;23.344;2023-11-19T12:32:44;6.28;;;4.78;;
64667;SDS011;51077;42.716;23.344;2023-11-19T12:35:10;6.68;;;5.53;;
64667;SDS011;51077;42.716;23.344;2023-11-19T12:37:43;7.55;;;4.90;;
64667;SDS011;51077;42.716;23.344;2023-11-19T12:42:43;7.30;;;4.90;;
64667;SDS011;51077;42.716;23.344;2023-11-19T12:45:10;6.40;;;4.38;;
64667;SDS011;51077;42.716;23.344;2023-11-19T12:47:41;6.05;;;4.30;;
64667;SDS011;51077;42.716;23.344;2023-11-19T12:50:12;5.30;;;4.17;;
64667;SDS011;51077;42.716;23.344;2023-11-19T12:52:38;5.00;;;3.77;;
64667;SDS011;51077;42.716;23.344;2023-11-19T12:55:05;5.43;;;3.80;;
64667;SDS011;51077;42.716;23.344;2023-11-19T12:57:50;5.22;;;3.58;;
64667;SDS011;51077;42.716;23.344;2023-11-19T13:00:19;4.80;;;3.60;;
64667;SDS011;51077;42.716;23.344;2023-11-19T13:02:46;6.75;;;4.65;;
64667;SDS011;51077;42.716;23.344;2023-11-19T13:05:23;5.85;;;4.10;;
64667;SDS011;51077;42.716;23.344;2023-11-19T13:10:30;4.82;;;3.55;;
64667;SDS011;51077;42.716;23.344;2023-11-19T13:13:04;5.15;;;3.47;;
64667;SDS011;51077;42.716;23.344;2023-11-19T13:15:31;4.82;;;3.13;;
64667;SDS011;51077;42.716;23.344;2023-11-19T13:17:58;4.30;;;3.25;;
64667;SDS011;51077;42.716;23.344;2023-11-19T13:20:23;5.73;;;3.30;;
64667;SDS011;51077;42.716;23.344;2023-11-19T13:23:03;5.97;;;3.40;;
64667;SDS011;51077;42.716;23.344;2023-11-19T13:25:30;4.70;;;3.30;;
64667;SDS011;51077;42.716;23.344;2023-11-19T13:27:57;4.03;;;2.88;;
64667;SDS011;51077;42.716;23.344;2023-11-19T13:30:23;4.75;;;3.10;;
64667;SDS011;51077;42.716;23.344;2023-11-19T13:32:50;5.28;;;3.15;;
64667;SDS011;51077;42.716;23.344;2023-11-19T13:35:17;5.55;;;3.42;;
64667;SDS011;51077;42.716;23.344;2023-11-19T13:37:44;5.55;;;3.38;;
64667;SDS011;51077;42.716;23.344;2023-11-19T13:40:11;6.50;;;3.38;;
64667;SDS011;51077;42.716;23.344;2023-11-19T13:42:39;6.10;;;3.60;;
64667;SDS011;51077;42.716;23.344;2023-11-19T13:45:09;5.85;;;3.90;;
64667;SDS011;51077;42.716;23.344;2023-11-19T13:47:37;5.45;;;3.78;;
64667;SDS011;51077;42.716;23.344;2023-11-19T13:50:10;5.78;;;3.88;;
64667;SDS011;51077;42.716;23.344;2023-11-19T13:52:37;6.10;;;3.95;;
64667;SDS011;51077;42.716;23.344;2023-11-19T13:55:07;6.00;;;3.40;;
64667;SDS011;51077;42.716;23.344;2023-11-19T13:57:36;6.53;;;3.78;;
64667;SDS011;51077;42.716;23.344;2023-11-19T14:00:04;5.07;;;3.47;;
64667;SDS011;51077;42.716;23.344;2023-11-19T14:02:31;8.00;;;3.92;;
64667;SDS011;51077;42.716;23.344;2023-11-19T14:04:57;7.38;;;4.22;;
64667;SDS011;51077;42.716;23.344;2023-11-19T14:07:23;6.97;;;3.90;;
64667;SDS011;51077;42.716;23.344;2023-11-19T14:09:48;6.97;;;4.20;;
64667;SDS011;51077;42.716;23.344;2023-11-19T14:12:15;5.93;;;3.70;;
64667;SDS011;51077;42.716;23.344;2023-11-19T14:14:41;7.22;;;3.30;;
64667;SDS011;51077;42.716;23.344;2023-11-19T14:17:07;5.23;;;3.77;;
64667;SDS011;51077;42.716;23.344;2023-11-19T14:19:33;6.03;;;3.90;;
64667;SDS011;51077;42.716;23.344;2023-11-19T14:21:58;5.90;;;3.40;;
64667;SDS011;51077;42.716;23.344;2023-11-19T14:24:25;6.13;;;3.80;;
64667;SDS011;51077;42.716;23.344;2023-11-19T14:26:51;7.30;;;4.10;;
64667;SDS011;51077;42.716;23.344;2023-11-19T14:29:17;6.70;;;3.57;;
64667;SDS011;51077;42.716;23.344;2023-11-19T14:31:42;6.37;;;3.47;;
64667;SDS011;51077;42.716;23.344;2023-11-19T14:34:08;5.60;;;3.50;;
64667;SDS011;51077;42.716;23.344;2023-11-19T14:36:33;6.93;;;3.73;;
64667;SDS011;51077;42.716;23.344;2023-11-19T14:39:00;7.00;;;3.80;;
64667;SDS011;51077;42.716;23.344;2023-11-19T14:41:25;6.45;;;4.00;;
64667;SDS011;51077;42.716;23.344;2023-11-19T14:43:51;6.67;;;4.47;;
64667;SDS011;51077;42.716;23.344;2023-11-19T14:46:17;7.85;;;4.30;;
64667;SDS011;51077;42.716;23.344;2023-11-19T14:48:43;7.73;;;4.57;;
64667;SDS011;51077;42.716;23.344;2023-11-19T14:51:08;6.43;;;4.27;;
64667;SDS011;51077;42.716;23.344;2023-11-19T14:53:34;8.37;;;4.80;;
64667;SDS011;51077;42.716;23.344;2023-11-19T14:55:59;8.33;;;4.83;;
64667;SDS011;51077;42.716;23.344;2023-11-19T14:58:25;8.38;;;4.40;;
64667;SDS011;51077;42.716;23.344;2023-11-19T15:00:52;7.77;;;4.57;;
64667;SDS011;51077;42.716;23.344;2023-11-19T15:03:18;8.63;;;5.03;;